createdAt,value
2023-09-09T00:00:09.039Z,16.25
2023-09-09T00:03:00.696Z,15.25
2023-09-09T00:05:33.214Z,16.50
2023-09-09T00:08:01.991Z,16.25
2023-09-09T00:10:31.362Z,16.00
2023-09-09T00:13:00.147Z,15.33
2023-09-09T00:15:31.233Z,15.33
2023-09-09T00:18:00.922Z,15.50
2023-09-09T00:20:37.674Z,15.00
2023-09-09T00:23:09.792Z,15.00
2023-09-09T00:25:39.325Z,16.25
2023-09-09T00:28:09.217Z,16.25
2023-09-09T00:30:37.934Z,15.25
2023-09-09T00:33:09.504Z,17.00
2023-09-09T00:35:41.339Z,15.25
2023-09-09T00:38:12.845Z,16.00
2023-09-09T00:40:44.947Z,14.33
2023-09-09T00:43:13.709Z,16.50
2023-09-09T00:45:42.116Z,15.00
2023-09-09T00:48:11.111Z,14.00
2023-09-09T00:50:39.639Z,16.75
2023-09-09T00:53:08.385Z,15.00
2023-09-09T00:55:40.784Z,15.00
2023-09-09T00:58:09.708Z,15.50
2023-09-09T01:00:39.908Z,15.00
2023-09-09T01:03:10.819Z,15.00
2023-09-09T01:05:39.866Z,15.00
2023-09-09T01:08:08.551Z,15.00
2023-09-09T01:10:36.929Z,16.50
2023-09-09T01:13:05.722Z,15.00
2023-09-09T01:15:34.128Z,16.00
2023-09-09T01:18:03.004Z,15.00
2023-09-09T01:20:32.988Z,16.00
2023-09-09T01:23:02.888Z,16.00
2023-09-09T01:25:31.320Z,15.00
2023-09-09T01:28:00.835Z,15.25
2023-09-09T01:30:29.202Z,18.00
2023-09-09T01:32:59.062Z,17.00
2023-09-09T01:35:27.434Z,16.00
2023-09-09T01:37:57.438Z,15.33
2023-09-09T01:40:25.880Z,15.33
2023-09-09T01:42:54.635Z,16.00
2023-09-09T01:45:23.040Z,16.50
2023-09-09T01:47:52.049Z,16.00
2023-09-09T01:50:21.981Z,16.00
2023-09-09T01:52:50.817Z,15.00
2023-09-09T01:55:19.231Z,16.00
2023-09-09T01:57:48.402Z,15.00
2023-09-09T02:00:21.089Z,17.00
2023-09-09T02:02:50.087Z,16.00
2023-09-09T02:05:18.437Z,16.00
2023-09-09T02:07:47.201Z,16.33
2023-09-09T02:10:16.137Z,16.00
2023-09-09T02:12:44.838Z,16.25
2023-09-09T02:15:14.666Z,15.25
2023-09-09T02:17:43.509Z,15.50
2023-09-09T02:20:11.914Z,16.25
2023-09-09T02:22:40.845Z,15.00
2023-09-09T02:25:09.979Z,16.00
2023-09-09T02:27:38.715Z,15.00
2023-09-09T02:30:08.767Z,15.50
2023-09-09T02:32:37.598Z,16.00
2023-09-09T02:35:08.836Z,16.00
2023-09-09T02:37:38.139Z,15.25
2023-09-09T02:40:07.025Z,15.00
2023-09-09T02:42:35.756Z,15.25
2023-09-09T02:45:04.506Z,15.00
2023-09-09T02:47:33.235Z,15.00
2023-09-09T02:50:01.621Z,15.00
2023-09-09T02:52:31.012Z,15.00
2023-09-09T02:54:59.391Z,16.00
2023-09-09T02:57:27.999Z,16.25
2023-09-09T02:59:57.155Z,17.33
2023-09-09T03:02:26.484Z,16.00
2023-09-09T03:04:55.078Z,15.25
2023-09-09T03:07:23.805Z,15.50
2023-09-09T03:09:52.316Z,15.25
2023-09-09T03:12:22.671Z,16.25
2023-09-09T03:14:51.512Z,15.00
2023-09-09T03:17:19.994Z,16.00
2023-09-09T03:19:49.885Z,13.25
2023-09-09T03:22:18.476Z,15.00
2023-09-09T03:24:47.212Z,13.00
2023-09-09T03:27:15.644Z,16.25
2023-09-09T03:29:44.388Z,15.00
2023-09-09T03:32:14.119Z,14.75
2023-09-09T03:34:42.866Z,15.00
2023-09-09T03:37:11.224Z,14.00
2023-09-09T03:39:40.051Z,14.33
2023-09-09T03:42:08.560Z,14.00
2023-09-09T03:44:37.322Z,14.00
2023-09-09T03:47:05.823Z,15.25
2023-09-09T03:49:34.727Z,14.00
2023-09-09T03:52:04.345Z,15.00
2023-09-09T03:54:33.079Z,15.00
2023-09-09T03:57:01.334Z,15.00
2023-09-09T03:59:32.990Z,15.00
2023-09-09T04:02:03.623Z,14.00
2023-09-09T04:04:32.390Z,15.00
2023-09-09T04:07:00.873Z,15.00
2023-09-09T04:09:29.730Z,15.00
2023-09-09T04:11:59.177Z,15.33
2023-09-09T04:14:27.826Z,15.33
2023-09-09T04:16:56.217Z,14.00
2023-09-09T04:19:25.275Z,14.25
2023-09-09T04:21:54.167Z,14.25
2023-09-09T04:24:22.820Z,14.25
2023-09-09T04:26:51.118Z,14.00
2023-09-09T04:29:19.844Z,15.00
2023-09-09T04:31:48.923Z,15.25
2023-09-09T04:34:17.779Z,15.00
2023-09-09T04:36:46.910Z,14.00
2023-09-09T04:39:18.472Z,14.00
2023-09-09T04:41:48.575Z,14.33
2023-09-09T04:44:17.237Z,14.00
2023-09-09T04:46:45.714Z,14.00
2023-09-09T04:49:14.625Z,16.00
2023-09-09T04:51:43.076Z,14.00
2023-09-09T04:54:11.789Z,16.00
2023-09-09T04:56:40.739Z,14.00
2023-09-09T04:59:09.652Z,15.33
2023-09-09T05:01:38.119Z,15.00
2023-09-09T05:04:07.492Z,15.00
2023-09-09T05:06:36.574Z,14.25
2023-09-09T05:09:05.292Z,14.00
2023-09-09T05:11:33.650Z,15.00
2023-09-09T05:14:02.544Z,15.33
2023-09-09T05:16:31.117Z,15.00
2023-09-09T05:19:00.031Z,17.00
2023-09-09T05:21:28.505Z,17.00
2023-09-09T05:23:57.265Z,17.00
2023-09-09T05:26:25.656Z,17.00
2023-09-09T05:28:54.306Z,16.25
2023-09-09T05:31:22.642Z,16.00
2023-09-09T05:33:51.341Z,15.00
2023-09-09T05:36:19.815Z,17.00
2023-09-09T05:38:48.500Z,15.00
2023-09-09T05:41:17.796Z,14.00
2023-09-09T05:43:46.375Z,16.00
2023-09-09T05:46:15.984Z,17.00
2023-09-09T05:48:44.966Z,17.00
2023-09-09T05:51:13.312Z,16.00
2023-09-09T05:53:43.063Z,16.00
2023-09-09T05:56:12.033Z,16.00
2023-09-09T05:58:42.451Z,18.00
2023-09-09T06:01:11.020Z,17.00
2023-09-09T06:03:40.918Z,18.00
2023-09-09T06:06:10.087Z,16.00
2023-09-09T06:08:39.239Z,17.33
2023-09-09T06:11:08.081Z,16.00
2023-09-09T06:13:37.438Z,17.25
2023-09-09T06:16:06.055Z,16.25
2023-09-09T06:18:34.846Z,16.50
2023-09-09T06:21:04.169Z,16.25
2023-09-09T06:23:32.965Z,16.25
2023-09-09T06:26:01.668Z,16.50
2023-09-09T06:28:30.550Z,18.00
2023-09-09T06:30:58.937Z,17.00
2023-09-09T06:33:28.221Z,18.00
2023-09-09T06:35:56.977Z,16.33
2023-09-09T06:38:27.339Z,18.00
2023-09-09T06:40:55.635Z,17.50
2023-09-09T06:43:24.818Z,19.25
2023-09-09T06:45:53.119Z,18.00
2023-09-09T06:48:22.866Z,19.25
2023-09-09T06:50:51.184Z,18.00
2023-09-09T06:53:19.831Z,20.25
2023-09-09T06:55:49.966Z,19.25
2023-09-09T06:58:18.795Z,21.00
2023-09-09T07:00:53.599Z,19.00
2023-09-09T07:03:22.608Z,21.25
2023-09-09T07:05:51.331Z,19.00
2023-09-09T07:08:20.038Z,17.00
2023-09-09T07:10:52.396Z,17.00
2023-09-09T07:13:25.126Z,18.00
2023-09-09T07:15:54.855Z,16.25
2023-09-09T07:18:23.914Z,16.00
2023-09-09T07:20:52.269Z,16.00
2023-09-09T07:23:20.844Z,15.00
2023-09-09T07:25:49.362Z,15.00
2023-09-09T07:28:18.374Z,15.33
2023-09-09T07:30:47.048Z,14.25
2023-09-09T07:33:16.444Z,16.00
2023-09-09T07:35:45.169Z,15.25
2023-09-09T07:38:14.071Z,15.00
2023-09-09T07:40:42.680Z,16.00
2023-09-09T07:43:11.471Z,15.00
2023-09-09T07:45:39.830Z,15.00
2023-09-09T07:48:08.920Z,15.00
2023-09-09T07:50:37.441Z,16.00
2023-09-09T07:53:06.139Z,15.33
2023-09-09T07:55:34.450Z,16.25
2023-09-09T07:58:03.170Z,14.00
2023-09-09T08:00:31.654Z,15.25
2023-09-09T08:03:00.892Z,16.00
2023-09-09T08:05:29.409Z,16.33
2023-09-09T08:07:58.027Z,16.00
2023-09-09T08:10:26.455Z,15.00
2023-09-09T08:12:55.228Z,16.25
2023-09-09T08:15:34.685Z,15.25
2023-09-09T08:18:09.547Z,15.00
2023-09-09T08:20:37.958Z,14.25
2023-09-09T08:23:06.990Z,14.50
2023-09-09T08:25:35.464Z,15.50
2023-09-09T08:28:05.344Z,14.00
2023-09-09T08:30:33.750Z,14.00
2023-09-09T08:33:03.093Z,14.50
2023-09-09T08:35:32.568Z,14.00
2023-09-09T08:38:01.755Z,15.25
2023-09-09T08:40:30.897Z,14.00
2023-09-09T08:43:00.534Z,14.25
2023-09-09T08:45:49.894Z,14.00
2023-09-09T08:48:20.483Z,14.00
2023-09-09T08:50:51.918Z,13.00
2023-09-09T08:53:21.650Z,14.00
2023-09-09T08:55:50.624Z,14.00
2023-09-09T08:58:21.447Z,13.33
2023-09-09T09:00:50.459Z,15.00
2023-09-09T09:03:19.916Z,13.00
2023-09-09T09:05:48.575Z,15.00
2023-09-09T09:08:17.292Z,16.75
2023-09-09T09:10:48.717Z,15.00
2023-09-09T09:13:17.888Z,15.00
2023-09-09T09:15:46.323Z,13.50
2023-09-09T09:18:15.101Z,14.00
2023-09-09T09:20:44.127Z,14.25
2023-09-09T09:23:14.478Z,14.25
2023-09-09T09:25:45.791Z,14.50
2023-09-09T09:28:18.892Z,14.25
2023-09-09T09:30:47.849Z,13.00
2023-09-09T09:33:16.824Z,15.00
2023-09-09T09:35:45.176Z,15.00
2023-09-09T09:38:16.355Z,14.00
2023-09-09T09:40:45.414Z,14.00
2023-09-09T09:43:21.087Z,15.00
2023-09-09T09:45:49.462Z,14.00
2023-09-09T09:48:28.173Z,15.00
2023-09-09T09:50:56.594Z,14.25
2023-09-09T09:53:26.508Z,14.25
2023-09-09T09:55:55.178Z,14.00
2023-09-09T09:58:25.376Z,14.25
2023-09-09T10:00:54.848Z,14.00
2023-09-09T10:03:24.976Z,14.25
2023-09-09T10:05:55.123Z,14.25
2023-09-09T10:08:36.699Z,14.25
2023-09-09T10:11:07.464Z,14.00
2023-09-09T10:13:46.588Z,14.25
2023-09-09T10:16:16.846Z,14.25
2023-09-09T10:18:46.505Z,14.33
2023-09-09T10:21:20.305Z,14.00
2023-09-09T10:23:57.504Z,14.00
2023-09-09T10:26:26.996Z,15.00
2023-09-09T10:28:56.098Z,15.00
2023-09-09T10:31:25.655Z,14.00
2023-09-09T10:33:56.692Z,14.50
2023-09-09T10:36:28.503Z,14.00
2023-09-09T10:38:57.793Z,15.25
2023-09-09T10:41:26.206Z,15.00
2023-09-09T10:43:55.327Z,15.50
2023-09-09T10:46:35.379Z,14.25
2023-09-09T10:49:07.735Z,15.00
2023-09-09T10:51:52.074Z,14.00
2023-09-09T10:54:24.761Z,14.00
2023-09-09T10:56:55.594Z,14.50
2023-09-09T10:59:31.195Z,15.25
2023-09-09T11:02:12.835Z,14.25
2023-09-09T11:04:42.728Z,14.00
2023-09-09T11:07:14.983Z,13.00
2023-09-09T11:09:54.939Z,15.00
2023-09-09T11:12:29.400Z,14.75
2023-09-09T11:15:00.439Z,15.00
2023-09-09T11:17:30.212Z,14.25
2023-09-09T11:20:00.194Z,13.00
2023-09-09T11:22:30.365Z,14.00
2023-09-09T11:25:02.436Z,14.00
2023-09-09T11:27:31.041Z,13.33
2023-09-09T11:29:59.805Z,16.00
2023-09-09T11:32:31.622Z,14.00
2023-09-09T11:35:00.573Z,15.25
2023-09-09T11:37:30.296Z,14.00
2023-09-09T11:39:59.181Z,14.25
2023-09-09T11:42:27.563Z,15.25
2023-09-09T11:44:56.364Z,14.25
2023-09-09T11:47:24.845Z,14.00
2023-09-09T11:49:53.508Z,14.00
2023-09-09T11:52:22.906Z,15.75
2023-09-09T11:54:51.741Z,15.00
2023-09-09T11:57:20.071Z,14.00
2023-09-09T11:59:50.655Z,15.25
2023-09-09T12:02:26.058Z,14.00
2023-09-09T12:04:56.551Z,14.00
2023-09-09T12:07:28.472Z,13.00
2023-09-09T12:09:59.545Z,14.33
2023-09-09T12:12:28.384Z,14.00
2023-09-09T12:14:58.295Z,15.00
2023-09-09T12:17:27.024Z,14.00
2023-09-09T12:19:59.730Z,14.25
2023-09-09T12:22:35.663Z,15.00
2023-09-09T12:25:07.357Z,14.50
2023-09-09T12:27:43.273Z,13.25
2023-09-09T12:30:31.094Z,14.00
2023-09-09T12:33:16.118Z,14.33
2023-09-09T12:35:46.154Z,14.00
2023-09-09T12:38:16.145Z,13.00
2023-09-09T12:41:08.243Z,14.25
2023-09-09T12:43:36.891Z,13.67
2023-09-09T12:46:16.201Z,13.00
2023-09-09T12:48:53.465Z,14.00
2023-09-09T12:51:23.156Z,14.25
2023-09-09T12:53:52.906Z,14.00
2023-09-09T12:56:21.730Z,13.00
2023-09-09T12:58:50.493Z,14.00
2023-09-09T13:01:19.220Z,14.25
2023-09-09T13:03:47.753Z,14.00
2023-09-09T13:06:16.826Z,13.00
2023-09-09T13:08:45.377Z,14.25
2023-09-09T13:11:14.069Z,14.33
2023-09-09T13:13:42.609Z,14.00
2023-09-09T13:16:13.756Z,14.00
2023-09-09T13:18:42.267Z,14.00
2023-09-09T13:21:10.975Z,13.00
2023-09-09T13:23:39.515Z,14.00
2023-09-09T13:26:08.239Z,13.00
2023-09-09T13:28:36.602Z,13.25
2023-09-09T13:31:05.431Z,13.25
2023-09-09T13:33:33.949Z,14.00
2023-09-09T13:36:02.895Z,13.25
2023-09-09T13:38:31.277Z,15.00
2023-09-09T13:41:00.211Z,13.00
2023-09-09T13:43:28.685Z,14.25
2023-09-09T13:45:58.243Z,13.00
2023-09-09T13:48:27.984Z,14.25
2023-09-09T13:50:56.706Z,13.25
2023-09-09T13:53:25.285Z,13.33
2023-09-09T13:55:54.020Z,13.25
2023-09-09T13:58:23.343Z,14.00
2023-09-09T14:00:52.678Z,13.00
2023-09-09T14:03:21.245Z,13.00
2023-09-09T14:05:50.017Z,14.25
2023-09-09T14:08:18.343Z,13.25
2023-09-09T14:10:46.976Z,13.50
2023-09-09T14:13:15.836Z,14.00
2023-09-09T14:15:44.742Z,14.00
2023-09-09T14:18:15.300Z,14.00
2023-09-09T14:20:45.486Z,13.33
2023-09-09T14:23:13.928Z,14.50
2023-09-09T14:25:42.677Z,13.00
2023-09-09T14:28:10.937Z,14.00
2023-09-09T14:30:46.482Z,14.00
2023-09-09T14:33:16.465Z,14.67
2023-09-09T14:35:45.414Z,14.00
2023-09-09T14:38:13.733Z,13.00
2023-09-09T14:40:42.436Z,14.00
2023-09-09T14:43:10.687Z,13.25
2023-09-09T14:45:39.408Z,13.25
2023-09-09T14:48:13.759Z,14.00
2023-09-09T14:50:43.112Z,14.00
2023-09-09T14:53:12.207Z,15.00
2023-09-09T14:55:42.127Z,14.00
2023-09-09T14:58:10.460Z,15.00
2023-09-09T15:00:41.862Z,14.25
2023-09-09T15:03:10.280Z,14.25
2023-09-09T15:05:39.154Z,14.00
2023-09-09T15:08:07.840Z,13.75
2023-09-09T15:10:36.740Z,14.00
2023-09-09T15:13:05.219Z,15.25
2023-09-09T15:15:38.872Z,14.00
2023-09-09T15:18:08.769Z,14.50
2023-09-09T15:20:37.617Z,14.25
2023-09-09T15:23:05.849Z,14.00
2023-09-09T15:25:34.420Z,14.00
2023-09-09T15:28:03.534Z,16.00
2023-09-09T15:30:32.089Z,15.00
2023-09-09T15:33:00.516Z,15.00
2023-09-09T15:35:29.954Z,14.00
2023-09-09T15:37:58.152Z,14.25
2023-09-09T15:40:26.840Z,14.75
2023-09-09T15:42:55.130Z,13.33
2023-09-09T15:45:23.866Z,14.00
2023-09-09T15:47:52.135Z,14.00
2023-09-09T15:50:20.908Z,14.25
2023-09-09T15:52:49.228Z,13.00
2023-09-09T15:55:18.050Z,14.00
2023-09-09T15:57:46.360Z,14.25
2023-09-09T16:00:15.117Z,14.00
2023-09-09T16:02:43.541Z,14.00
2023-09-09T16:05:12.351Z,13.25
2023-09-09T16:07:44.863Z,14.00
2023-09-09T16:10:13.559Z,14.00
2023-09-09T16:12:41.849Z,14.25
2023-09-09T16:15:10.827Z,14.25
2023-09-09T16:17:39.234Z,15.00
2023-09-09T16:20:09.265Z,14.33
2023-09-09T16:22:40.548Z,15.00
2023-09-09T16:25:09.886Z,14.67
2023-09-09T16:27:38.530Z,14.00
2023-09-09T16:30:07.850Z,14.00
2023-09-09T16:32:36.387Z,14.00
2023-09-09T16:35:05.502Z,13.25
2023-09-09T16:37:35.563Z,14.25
2023-09-09T16:40:05.133Z,15.25
2023-09-09T16:42:33.390Z,13.25
2023-09-09T16:45:02.113Z,16.25
2023-09-09T16:47:30.439Z,15.50
2023-09-09T16:49:59.203Z,14.00
2023-09-09T16:52:27.713Z,15.00
2023-09-09T16:54:56.471Z,15.00
2023-09-09T16:57:24.747Z,14.25
2023-09-09T16:59:53.532Z,15.00
2023-09-09T17:02:21.891Z,15.25
2023-09-09T17:04:50.824Z,16.00
2023-09-09T17:07:19.190Z,15.00
2023-09-09T17:09:47.890Z,15.00
2023-09-09T17:12:16.200Z,14.00
2023-09-09T17:14:45.127Z,16.00
2023-09-09T17:17:13.497Z,15.25
2023-09-09T17:19:42.225Z,15.25
2023-09-09T17:22:10.583Z,15.25
2023-09-09T17:24:39.304Z,15.00
2023-09-09T17:27:07.747Z,16.00
2023-09-09T17:29:36.357Z,16.00
2023-09-09T17:32:05.508Z,15.25
2023-09-09T17:34:41.981Z,15.00
2023-09-09T17:37:10.610Z,16.50
2023-09-09T17:39:39.867Z,16.25
2023-09-09T17:42:08.349Z,15.00
2023-09-09T17:44:38.431Z,15.50
2023-09-09T17:47:07.257Z,17.00
2023-09-09T17:49:37.332Z,17.00
2023-09-09T17:52:06.242Z,16.00
2023-09-09T17:54:36.165Z,15.00
2023-09-09T17:57:04.710Z,16.00
2023-09-09T17:59:33.925Z,16.00
2023-09-09T18:02:02.442Z,16.50
2023-09-09T18:04:31.339Z,16.25
2023-09-09T18:07:00.059Z,16.25
2023-09-09T18:09:28.877Z,16.00
2023-09-09T18:11:57.268Z,16.25
2023-09-09T18:14:25.947Z,16.50
2023-09-09T18:16:54.412Z,17.25
2023-09-09T18:19:24.402Z,17.25
2023-09-09T18:21:53.377Z,17.25
2023-09-09T18:24:23.889Z,17.00
2023-09-09T18:26:52.829Z,16.25
2023-09-09T18:29:25.608Z,16.25
2023-09-09T18:31:54.498Z,15.33
2023-09-09T18:34:26.030Z,16.00
2023-09-09T18:36:54.591Z,16.00
2023-09-09T18:39:23.182Z,16.00
2023-09-09T18:41:51.519Z,15.25
2023-09-09T18:44:20.409Z,15.00
2023-09-09T18:46:48.850Z,15.00
2023-09-09T18:49:18.118Z,15.00
2023-09-09T18:51:46.615Z,15.00
2023-09-09T18:54:15.338Z,15.25
2023-09-09T18:56:43.819Z,16.00
2023-09-09T18:59:12.529Z,15.50
2023-09-09T19:01:41.043Z,14.50
2023-09-09T19:04:09.971Z,15.50
2023-09-09T19:06:38.456Z,15.25
2023-09-09T19:09:07.177Z,15.25
2023-09-09T19:11:35.628Z,15.00
2023-09-09T19:14:04.454Z,15.33
2023-09-09T19:16:32.818Z,16.00
2023-09-09T19:19:01.510Z,14.00
2023-09-09T19:21:31.948Z,16.00
2023-09-09T19:24:00.697Z,17.25
2023-09-09T19:26:29.064Z,16.00
2023-09-09T19:28:57.755Z,16.00
2023-09-09T19:31:26.226Z,16.25
2023-09-09T19:33:54.897Z,16.25
2023-09-09T19:36:23.338Z,16.25
2023-09-09T19:38:51.994Z,15.25
2023-09-09T19:41:20.291Z,15.00
2023-09-09T19:43:49.101Z,16.33
2023-09-09T19:46:17.580Z,17.00
2023-09-09T19:48:47.150Z,15.00
2023-09-09T19:51:15.479Z,16.00
2023-09-09T19:53:44.238Z,16.00
2023-09-09T19:56:12.549Z,16.25
2023-09-09T19:58:41.623Z,16.00
2023-09-09T20:01:10.399Z,16.25
2023-09-09T20:03:39.267Z,17.33
2023-09-09T20:06:08.201Z,16.00
2023-09-09T20:08:37.511Z,16.00
2023-09-09T20:11:06.211Z,16.00
2023-09-09T20:13:35.293Z,16.25
2023-09-09T20:16:04.640Z,16.00
2023-09-09T20:18:33.307Z,17.00
2023-09-09T20:21:02.867Z,16.25
2023-09-09T20:23:31.549Z,17.00
2023-09-09T20:26:00.001Z,15.00
2023-09-09T20:28:30.209Z,16.00
2023-09-09T20:30:58.724Z,17.00
2023-09-09T20:33:27.474Z,16.25
2023-09-09T20:35:55.808Z,17.00
2023-09-09T20:38:24.536Z,17.00
2023-09-09T20:40:56.270Z,16.25
2023-09-09T20:43:27.862Z,17.50
2023-09-09T20:45:56.557Z,18.00
2023-09-09T20:48:25.351Z,17.00
2023-09-09T20:50:53.665Z,17.25
2023-09-09T20:53:22.317Z,17.00
2023-09-09T20:55:52.491Z,18.00
2023-09-09T20:58:22.648Z,18.25
2023-09-09T21:00:57.889Z,18.25
2023-09-09T21:03:26.711Z,17.33
2023-09-09T21:05:55.199Z,17.33
2023-09-09T21:08:23.902Z,16.50
2023-09-09T21:10:53.371Z,16.00
2023-09-09T21:13:22.945Z,17.25
2023-09-09T21:15:51.290Z,16.33
2023-09-09T21:18:20.053Z,16.25
2023-09-09T21:20:48.639Z,16.00
2023-09-09T21:23:17.346Z,17.00
2023-09-09T21:25:45.749Z,16.25
2023-09-09T21:28:14.418Z,17.00
2023-09-09T21:30:42.943Z,17.25
2023-09-09T21:33:11.852Z,17.00
2023-09-09T21:35:40.141Z,15.25
2023-09-09T21:38:08.943Z,16.00
2023-09-09T21:40:37.266Z,17.25
2023-09-09T21:43:05.946Z,16.00
2023-09-09T21:45:34.400Z,14.67
2023-09-09T21:48:03.855Z,16.00
2023-09-09T21:50:32.214Z,15.75
2023-09-09T21:53:00.815Z,16.25
2023-09-09T21:55:29.979Z,16.00
2023-09-09T21:57:58.717Z,16.33
2023-09-09T22:00:27.615Z,15.25
2023-09-09T22:02:56.800Z,15.00
2023-09-09T22:05:25.146Z,16.00
2023-09-09T22:07:53.906Z,15.33
2023-09-09T22:10:22.201Z,15.67
2023-09-09T22:12:50.831Z,16.25
2023-09-09T22:15:19.243Z,16.00
2023-09-09T22:17:47.932Z,16.00
2023-09-09T23:14:12.557Z,15.00
2023-09-09T23:16:41.506Z,16.33
2023-09-09T23:19:09.767Z,15.00
2023-09-09T23:21:38.406Z,16.00
2023-09-09T23:24:06.902Z,16.00
2023-09-09T23:26:35.811Z,15.25
2023-09-09T23:29:05.712Z,15.25
2023-09-09T23:31:35.097Z,15.00
2023-09-09T23:34:04.338Z,16.00
2023-09-09T23:36:33.009Z,16.00
2023-09-09T23:39:10.458Z,16.25
2023-09-09T23:41:39.543Z,16.00
2023-09-09T23:44:08.074Z,16.00
2023-09-09T23:46:36.616Z,16.25
2023-09-09T23:49:06.690Z,16.00
2023-09-09T23:51:35.305Z,15.00
2023-09-09T23:54:04.218Z,16.00
2023-09-09T23:56:32.719Z,17.50
2023-09-09T23:59:01.045Z,16.75
